WetterOnline ( http://www.wetteronline.de )

Wetter aktuell Feuchtwangen

Aktuelles Wetter: Feuchtwangen-Heilbronn (475m)

6-stündlich | Neueste Meldungen
Ortszeit Temperatur Wetter
Mi, 25.04. 20:00 14.6° C wolkenlos
Mi, 25.04. 8:00 12.3° C fast wolkenlos
Mi, 25.04. 2:00 7.6° C wolkig
Di, 24.04. 20:00 14.7° C wolkig
Di, 24.04. 14:00 17.1° C wolkig
Di, 24.04. 8:00 10.5° C leicht bewölkt
Di, 24.04. 2:00 12.6° C bewölkt
Mo, 23.04. 20:00 14.8° C bewölkt
Ortszeit Temperatur Wetter
Mi, 25.04. 23:30 10.9° C leicht bewölkt
Mi, 25.04. 23:20 10.9° C leicht bewölkt
Mi, 25.04. 23:10 11.7° C wolkig
Mi, 25.04. 23:00 12.1° C bewölkt
Mi, 25.04. 22:50 12.1° C bewölkt
Mi, 25.04. 22:40 12.2° C wolkig
Mi, 25.04. 22:30 11.9° C fast wolkenlos
Mi, 25.04. 22:00 11.8° C wolkenlos
Mi, 25.04. 21:30 12.4° C fast wolkenlos
Mi, 25.04. 21:00 13.2° C wolkenlos
Mi, 25.04. 20:30 14.1° C wolkenlos
Ortszeit Relative Feuchte Sichtweite
Mi, 25.04. 20:00 62% 30 km
Mi, 25.04. 8:00 77% 20 km
Mi, 25.04. 2:00 99% 4.3 km
Di, 24.04. 20:00 74% 19 km
Di, 24.04. 14:00 55% 22 km
Di, 24.04. 8:00 97% 5.0 km
Di, 24.04. 2:00 93% 13 km
Mo, 23.04. 20:00 84% 26 km
Ortszeit Relative Feuchte Sichtweite
Mi, 25.04. 23:30 78% 40 km
Mi, 25.04. 23:20 78% -
Mi, 25.04. 23:10 75% -
Mi, 25.04. 23:00 72% 55 km
Mi, 25.04. 22:50 72% -
Mi, 25.04. 22:40 72% -
Mi, 25.04. 22:30 73% 55 km
Mi, 25.04. 22:00 74% 55 km
Mi, 25.04. 21:30 74% 50 km
Mi, 25.04. 21:00 69% 60 km
Mi, 25.04. 20:30 65% 50 km
Ortszeit Niederschlagsmenge Niederschlagsart
Mi, 25.04. 20:00 0.0 l/m2 in 3 Std. -
Mi, 25.04. 8:00 0.0 l/m2 in 12 Std. -
Mi, 25.04. 2:00 0.0 l/m2 in 6 Std. -
Di, 24.04. 20:00 0.0 l/m2 in 12 Std. -
Di, 24.04. 14:00 0.0 l/m2 in 6 Std. -
Di, 24.04. 8:00 5 l/m2 in 12 Std. -
Di, 24.04. 2:00 5 l/m2 in 6 Std. Regen
Mo, 23.04. 20:00 0.3 l/m2 in 12 Std. Regen
Ortszeit Niederschlagsmenge Niederschlagsart
Mi, 25.04. 23:30 0.0 l/m2 in 1 Std. -
Mi, 25.04. 23:20 keine Meldung -
Mi, 25.04. 23:10 keine Meldung -
Mi, 25.04. 23:00 0.0 l/m2 in 1 Std. -
Mi, 25.04. 22:50 keine Meldung -
Mi, 25.04. 22:40 keine Meldung -
Mi, 25.04. 22:30 0.0 l/m2 in 1 Std. -
Mi, 25.04. 22:00 0.0 l/m2 in 1 Std. -
Mi, 25.04. 21:30 0.0 l/m2 in 1 Std. -
Mi, 25.04. 21:00 0.0 l/m2 in 1 Std. -
Mi, 25.04. 20:30 0.0 l/m2 in 1 Std. -
Ortszeit Stärke Spitze Richtung
km/h Bft. km/h Grad Sektor
Mi, 25.04. 20:00 22 4 54 280° W
Mi, 25.04. 8:00 14 3 22 240° SW
Mi, 25.04. 2:00 4 1 11 130° SO
Di, 24.04. 20:00 6 1 35 300° NW
Di, 24.04. 14:00 18 3 43 270° W
Di, 24.04. 8:00 6 1 20 220° SW
Di, 24.04. 2:00 11 2 26 270° W
Mo, 23.04. 20:00 14 3 36 260° W
Ortszeit Stärke Spitze Richtung
km/h Bft. km/h Grad Sektor
Mi, 25.04. 23:30 11 2 25 310° NW
Mi, 25.04. 23:20 11 2 - 310° NW
Mi, 25.04. 23:10 14 3 - 310° NW
Mi, 25.04. 23:00 14 3 22 290° W
Mi, 25.04. 22:50 14 3 - 290° W
Mi, 25.04. 22:40 11 2 - 280° W
Mi, 25.04. 22:30 11 2 17 270° W
Mi, 25.04. 22:00 9 2 20 260° W
Mi, 25.04. 21:30 11 2 18 250° W
Mi, 25.04. 21:00 14 3 43 270° W
Mi, 25.04. 20:30 20 4 43 270° W
Ortszeit Untergrenze Bedeckung Gattung
total tief tief mittel hoch
Mi, 25.04. 20:00 - 0/8 0/8 - - -
Mi, 25.04. 8:00 10500 m 1/8 0/8 - - -
Mi, 25.04. 2:00 8400 m 8/8 0/8 - - -
Di, 24.04. 20:00 9000 m 8/8 0/8 - - -
Di, 24.04. 14:00 1350 m 5/8 5/8 - - -
Di, 24.04. 8:00 180 m 5/8 1/8 - - -
Di, 24.04. 2:00 300 m 7/8 6/8 - - -
Mo, 23.04. 20:00 1050 m 8/8 5/8 - - -
Ortszeit Bedeckungsgrad in Achtel und Wolkenuntergrenze
Mi, 25.04. 23:30 2(1080m) 3(2100m)
Mi, 25.04. 23:20 2(1080m) 2(1500m) 3(2100m)
Mi, 25.04. 23:10 2(1050m) 4(1500m) 6(2100m)
Mi, 25.04. 23:00 7(2100m) 7(2100m)
Mi, 25.04. 22:50 7(2100m)
Mi, 25.04. 22:40 5(2100m)
Mi, 25.04. 22:30 1(2400m)
Mi, 25.04. 22:00 1(2400m)
Mi, 25.04. 21:30 1(2700m)
Mi, 25.04. 21:00 1(2700m)
Mi, 25.04. 20:30 keine Wolken
Ortszeit Luftdruck NN (hPa) Tendenz (hPa in 3 Std.)
Mi, 25.04. 20:00 1013 + 0,1
Mi, 25.04. 8:00 1013 - 0,1
Mi, 25.04. 2:00 1016 - 1,0
Di, 24.04. 20:00 1015 - 1,2
Di, 24.04. 14:00 1018 - 0,8
Di, 24.04. 8:00 1020 + 0,6
Di, 24.04. 2:00 1019 + 0,6
Mo, 23.04. 20:00 1017 + 0,7
Ortszeit Luftdruck NN (hPa) Tendenz (hPa in 3 Std.)
Mi, 25.04. 23:30 1015 + 1,5
Mi, 25.04. 23:20 1015 keine Meldung
Mi, 25.04. 23:10 1015 keine Meldung
Mi, 25.04. 23:00 1015 + 1,5
Mi, 25.04. 22:50 1015 keine Meldung
Mi, 25.04. 22:40 1014 keine Meldung
Mi, 25.04. 22:30 1014 + 1,3
Mi, 25.04. 22:00 1014 + 1,1
Mi, 25.04. 21:30 1014 + 0,7
Mi, 25.04. 21:00 1013 + 0,5
Mi, 25.04. 20:30 1013 + 0,4
Ortszeit Schneehöhe (cm)
Mi, 25.04. 20:00 0
Mi, 25.04. 8:00 0
Mi, 25.04. 2:00 0
Di, 24.04. 20:00 0
Di, 24.04. 14:00 0
Di, 24.04. 8:00 0
Di, 24.04. 2:00 0
Mo, 23.04. 20:00 0
Ortszeit Schneehöhe (cm)
Mi, 25.04. 23:30 0
Mi, 25.04. 23:20 0
Mi, 25.04. 23:10 0
Mi, 25.04. 23:00 0
Mi, 25.04. 22:50 0
Mi, 25.04. 22:40 0
Mi, 25.04. 22:30 0
Mi, 25.04. 22:00 0
Mi, 25.04. 21:30 0
Mi, 25.04. 21:00 0
Mi, 25.04. 20:30 0
Link zu dieser Seite / Seite empfehlen

Das Wetter in ...